Time;durP1;ratioP1;P1;durP2;ratioP2;P2;SDS_P1;SDS_P2;PMS_P1;PMS_P2;Temp;Humidity;BMP_temperature;BMP_pressure;BME280_temperature;BME280_humidity;BME280_pressure;Samples;Min_cycle;Max_cycle;Signal;HPM_P1;HPM_P2
2023/08/29 00:00:18;;;;;;;179.57;165.17;;;;;;;;;;5006988;28;20045;-62
2023/08/29 00:02:44;;;;;;;251.80;231.55;;;;;;;;;;5010043;28;20087;-57
2023/08/29 00:05:09;;;;;;;129.33;120.83;;;;;;;;;;5004101;28;20026;-58
2023/08/29 00:07:34;;;;;;;233.48;215.30;;;;;;;;;;5011074;28;20038;-58
2023/08/29 00:10:00;;;;;;;166.13;154.75;;;;;;;;;;5011261;28;20034;-57
2023/08/29 00:12:25;;;;;;;174.90;162.90;;;;;;;;;;5011852;28;20091;-57
2023/08/29 00:14:50;;;;;;;201.77;188.90;;;;;;;;;;5010292;28;20022;-57
2023/08/29 00:17:16;;;;;;;160.80;150.13;;;;;;;;;;5009458;28;20022;-57
2023/08/29 00:19:41;;;;;;;166.43;155.38;;;;;;;;;;5011232;28;20053;-57
2023/08/29 00:22:06;;;;;;;275.40;254.27;;;;;;;;;;5011888;28;20029;-58
2023/08/29 00:24:31;;;;;;;219.63;205.10;;;;;;;;;;5011711;28;20123;-57
2023/08/29 00:26:56;;;;;;;161.07;150.40;;;;;;;;;;5010980;28;20030;-59
2023/08/29 00:29:22;;;;;;;246.52;229.02;;;;;;;;;;5011351;28;20029;-59
2023/08/29 00:31:47;;;;;;;150.37;140.00;;;;;;;;;;5007200;28;20378;-59
2023/08/29 00:34:12;;;;;;;106.40;99.13;;;;;;;;;;5011223;28;20030;-60
2023/08/29 00:36:37;;;;;;;236.40;218.95;;;;;;;;;;5010608;28;20037;-59
2023/08/29 00:39:03;;;;;;;182.77;169.77;;;;;;;;;;5006463;28;20022;-59
2023/08/29 00:41:28;;;;;;;156.38;145.93;;;;;;;;;;5011015;28;20075;-59
2023/08/29 00:43:54;;;;;;;163.27;152.57;;;;;;;;;;5011137;28;20104;-59
2023/08/29 00:46:20;;;;;;;272.80;251.30;;;;;;;;;;5003853;28;20030;-59
2023/08/29 00:48:45;;;;;;;187.25;172.50;;;;;;;;;;5004977;28;20021;-59
2023/08/29 00:51:10;;;;;;;217.97;202.37;;;;;;;;;;5010537;28;20725;-60
2023/08/29 00:53:36;;;;;;;318.70;292.07;;;;;;;;;;5010544;28;20045;-59
2023/08/29 00:56:02;;;;;;;129.15;120.38;;;;;;;;;;5010971;28;20466;-60
2023/08/29 00:58:27;;;;;;;187.40;175.32;;;;;;;;;;5009826;28;20229;-59
2023/08/29 01:00:52;;;;;;;133.32;124.18;;;;;;;;;;5005031;28;20068;-59
2023/08/29 01:03:18;;;;;;;307.50;283.33;;;;;;;;;;5001018;28;20040;-60
2023/08/29 01:05:43;;;;;;;160.40;150.00;;;;;;;;;;5007700;28;20370;-60
2023/08/29 01:08:08;;;;;;;163.93;153.07;;;;;;;;;;5009645;28;20018;-59
2023/08/29 01:10:36;;;;;;;249.87;230.43;;;;;;;;;;5010632;28;20409;-59
2023/08/29 01:13:20;;;;;;;192.73;180.00;;;;;;;;;;5011027;28;20045;-60
2023/08/29 01:15:48;;;;;;;237.68;220.15;;;;;;;;;;5011840;28;20060;-59
2023/08/29 01:18:14;;;;;;;147.82;137.27;;;;;;;;;;5004743;28;20367;-59
2023/08/29 01:20:40;;;;;;;354.15;326.20;;;;;;;;;;5006515;28;20152;-59
2023/08/29 01:23:19;;;;;;;283.48;260.60;;;;;;;;;;5009486;28;20096;-59
2023/08/29 01:26:05;;;;;;;158.48;146.95;;;;;;;;;;5002275;28;20466;-59
2023/08/29 01:28:30;;;;;;;159.18;148.60;;;;;;;;;;5010715;28;20038;-59
2023/08/29 01:30:56;;;;;;;182.80;170.23;;;;;;;;;;5008625;28;20022;-59
2023/08/29 01:33:21;;;;;;;426.52;390.13;;;;;;;;;;5004507;28;20037;-59
2023/08/29 01:35:47;;;;;;;145.60;136.23;;;;;;;;;;5010134;28;20477;-59
2023/08/29 01:38:12;;;;;;;294.35;272.17;;;;;;;;;;5008826;28;20510;-59
2023/08/29 01:40:39;;;;;;;151.45;141.52;;;;;;;;;;5008828;28;20112;-59
2023/08/29 01:43:04;;;;;;;167.07;154.73;;;;;;;;;;4998946;28;20014;-59
2023/08/29 01:45:29;;;;;;;269.47;248.57;;;;;;;;;;5008084;28;20029;-59
2023/08/29 01:47:54;;;;;;;190.70;177.07;;;;;;;;;;5004624;28;20485;-59
2023/08/29 01:50:19;;;;;;;231.70;215.65;;;;;;;;;;5005234;28;20040;-59
2023/08/29 01:52:45;;;;;;;264.67;243.45;;;;;;;;;;5010065;28;20109;-59
2023/08/29 01:55:10;;;;;;;205.57;190.37;;;;;;;;;;5010615;28;20026;-59
2023/08/29 01:57:35;;;;;;;287.50;265.53;;;;;;;;;;5001995;28;20057;-59
2023/08/29 02:00:02;;;;;;;139.23;129.02;;;;;;;;;;5010079;28;20025;-59
2023/08/29 02:02:27;;;;;;;;;;;;;;;;;;5008895;28;20026;-59
2023/08/29 02:04:52;;;;;;;232.80;215.55;;;;;;;;;;5001052;28;19916;-59
2023/08/29 02:07:17;;;;;;;226.20;211.27;;;;;;;;;;5008298;28;20037;-59
2023/08/29 02:09:42;;;;;;;252.60;233.97;;;;;;;;;;5010290;28;20069;-60
2023/08/29 02:12:07;;;;;;;171.97;160.43;;;;;;;;;;5008424;28;20688;-59
2023/08/29 02:14:33;;;;;;;191.27;177.45;;;;;;;;;;5010452;28;20026;-59
2023/08/29 02:16:58;;;;;;;212.00;197.90;;;;;;;;;;4996196;28;20014;-59
2023/08/29 02:19:23;;;;;;;270.03;249.43;;;;;;;;;;4998104;28;20030;-59
2023/08/29 02:21:48;;;;;;;151.77;141.43;;;;;;;;;;5009666;28;20161;-59
2023/08/29 02:24:13;;;;;;;177.20;164.57;;;;;;;;;;5010205;28;20084;-59
2023/08/29 02:26:38;;;;;;;284.57;262.13;;;;;;;;;;5008932;28;20037;-60
2023/08/29 02:29:04;;;;;;;285.93;263.33;;;;;;;;;;5002478;28;20072;-59
2023/08/29 02:31:29;;;;;;;316.50;292.43;;;;;;;;;;5009085;28;20068;-59
2023/08/29 02:33:54;;;;;;;140.27;130.47;;;;;;;;;;4995305;28;20025;-59
2023/08/29 02:36:19;;;;;;;363.52;333.42;;;;;;;;;;5014871;28;20029;-59
2023/08/29 02:38:44;;;;;;;331.57;304.47;;;;;;;;;;5013507;28;20485;-59
2023/08/29 02:41:11;;;;;;;404.70;373.50;;;;;;;;;;5013528;28;20022;-60
2023/08/29 02:43:36;;;;;;;189.65;176.15;;;;;;;;;;5013177;28;20022;-59
2023/08/29 02:46:01;;;;;;;180.17;167.93;;;;;;;;;;5005536;28;20029;-59
2023/08/29 02:48:27;;;;;;;251.32;234.00;;;;;;;;;;5000675;28;20033;-59
2023/08/29 02:50:53;;;;;;;159.98;147.82;;;;;;;;;;5011646;28;20119;-59
2023/08/29 02:53:18;;;;;;;122.70;113.30;;;;;;;;;;5013224;28;20061;-59
2023/08/29 02:55:44;;;;;;;156.77;146.07;;;;;;;;;;5013099;28;20140;-59
2023/08/29 02:58:09;;;;;;;199.98;185.25;;;;;;;;;;5005826;28;20100;-59
2023/08/29 03:00:35;;;;;;;170.73;157.77;;;;;;;;;;5001446;28;20384;-59
2023/08/29 03:03:00;;;;;;;278.98;257.20;;;;;;;;;;5012881;28;20064;-59
2023/08/29 03:05:25;;;;;;;137.23;126.73;;;;;;;;;;5012987;28;20502;-59
2023/08/29 03:07:50;;;;;;;230.30;213.02;;;;;;;;;;5012232;28;20033;-60
2023/08/29 03:10:17;;;;;;;235.07;216.40;;;;;;;;;;5013140;28;20338;-59
2023/08/29 03:12:42;;;;;;;298.05;274.70;;;;;;;;;;5008371;28;20144;-60
2023/08/29 03:15:07;;;;;;;126.77;118.40;;;;;;;;;;5009877;28;20544;-60
2023/08/29 03:17:32;;;;;;;184.90;172.27;;;;;;;;;;5011209;28;20034;-59
2023/08/29 03:19:58;;;;;;;157.57;146.90;;;;;;;;;;5002386;28;20876;-62
2023/08/29 03:22:23;;;;;;;209.37;193.67;;;;;;;;;;5013880;28;20067;-61
2023/08/29 03:24:48;;;;;;;244.77;225.63;;;;;;;;;;5010007;28;20033;-60
2023/08/29 03:27:13;;;;;;;139.40;129.13;;;;;;;;;;5007926;28;20104;-59
2023/08/29 03:29:39;;;;;;;169.70;157.88;;;;;;;;;;5012503;28;20400;-60
2023/08/29 03:32:04;;;;;;;209.95;194.20;;;;;;;;;;5011434;28;20028;-60
2023/08/29 03:34:29;;;;;;;186.60;173.33;;;;;;;;;;5004583;28;20030;-59
2023/08/29 03:36:55;;;;;;;163.38;151.73;;;;;;;;;;5001795;28;20475;-60
2023/08/29 03:39:20;;;;;;;368.20;338.27;;;;;;;;;;5003116;28;20046;-59
2023/08/29 03:41:45;;;;;;;208.57;193.23;;;;;;;;;;5008882;28;20034;-60
2023/08/29 03:44:11;;;;;;;192.73;179.82;;;;;;;;;;5005374;28;20037;-60
2023/08/29 03:46:36;;;;;;;138.88;128.85;;;;;;;;;;5002506;28;20664;-60
2023/08/29 03:49:01;;;;;;;129.43;120.00;;;;;;;;;;5001992;28;20018;-60
2023/08/29 03:51:26;;;;;;;250.47;231.23;;;;;;;;;;5005642;28;20556;-60
2023/08/29 03:53:51;;;;;;;436.20;400.03;;;;;;;;;;5007299;28;20037;-60
2023/08/29 03:56:18;;;;;;;324.10;297.27;;;;;;;;;;5010611;28;20033;-60
2023/08/29 03:58:44;;;;;;;173.95;161.20;;;;;;;;;;5010362;28;20041;-60
2023/08/29 04:01:11;;;;;;;;;;;;;;;;;;5014820;28;20034;-60
2023/08/29 04:03:36;;;;;;;203.65;190.07;;;;;;;;;;5005834;28;19916;-60
2023/08/29 04:06:01;;;;;;;290.30;267.23;;;;;;;;;;5008256;28;20022;-61
2023/08/29 04:08:26;;;;;;;256.13;235.47;;;;;;;;;;5004149;28;20109;-60
2023/08/29 04:10:52;;;;;;;252.60;232.57;;;;;;;;;;5002507;28;20029;-60
2023/08/29 04:13:17;;;;;;;280.47;257.60;;;;;;;;;;5009914;28;20049;-60
2023/08/29 04:15:42;;;;;;;214.20;196.48;;;;;;;;;;5010909;28;20024;-61
2023/08/29 04:18:10;;;;;;;246.73;228.23;;;;;;;;;;5014628;28;20025;-61
2023/08/29 04:20:36;;;;;;;212.30;196.82;;;;;;;;;;5016012;28;20021;-61
2023/08/29 04:23:03;;;;;;;158.82;147.23;;;;;;;;;;5004126;28;20121;-61
2023/08/29 04:25:29;;;;;;;258.77;239.82;;;;;;;;;;5007319;28;20018;-60
2023/08/29 04:27:54;;;;;;;294.70;271.33;;;;;;;;;;5002100;28;20077;-61
2023/08/29 04:30:20;;;;;;;415.53;379.90;;;;;;;;;;5006370;28;20029;-62
2023/08/29 04:32:46;;;;;;;302.63;278.13;;;;;;;;;;5001870;28;20254;-64
2023/08/29 04:35:12;;;;;;;286.75;263.38;;;;;;;;;;5005277;28;20477;-65
2023/08/29 04:37:37;;;;;;;255.10;234.20;;;;;;;;;;4998975;28;20079;-63
2023/08/29 04:40:06;;;;;;;288.03;265.97;;;;;;;;;;5010115;28;20088;-62
2023/08/29 04:42:31;;;;;;;261.25;240.93;;;;;;;;;;5006064;28;20683;-62
2023/08/29 04:44:56;;;;;;;406.83;371.80;;;;;;;;;;5006151;28;20088;-63
2023/08/29 04:47:22;;;;;;;357.92;327.88;;;;;;;;;;5006150;28;20464;-65
2023/08/29 04:49:47;;;;;;;307.55;282.35;;;;;;;;;;5006300;28;20504;-60
2023/08/29 04:52:12;;;;;;;238.82;220.98;;;;;;;;;;4995898;28;20064;-62
2023/08/29 04:54:38;;;;;;;217.77;201.60;;;;;;;;;;4997950;28;20080;-60
2023/08/29 04:57:04;;;;;;;342.48;314.80;;;;;;;;;;5005416;28;20022;-63
2023/08/29 04:59:29;;;;;;;258.17;238.32;;;;;;;;;;5003334;28;20124;-62
2023/08/29 05:01:54;;;;;;;403.67;370.83;;;;;;;;;;5001466;28;20105;-63
2023/08/29 05:04:19;;;;;;;321.27;295.33;;;;;;;;;;5007030;28;20479;-62
2023/08/29 05:06:45;;;;;;;199.50;184.37;;;;;;;;;;5004705;28;20022;-61
2023/08/29 05:09:11;;;;;;;251.90;231.95;;;;;;;;;;5003834;28;20037;-62
2023/08/29 05:11:36;;;;;;;300.77;278.50;;;;;;;;;;5005279;28;20059;-67
2023/08/29 05:14:02;;;;;;;449.57;412.63;;;;;;;;;;5002374;28;20018;-61
2023/08/29 05:16:27;;;;;;;188.07;174.93;;;;;;;;;;5006324;28;20048;-61
2023/08/29 05:18:52;;;;;;;186.80;174.18;;;;;;;;;;4996490;28;20023;-63
2023/08/29 05:21:17;;;;;;;198.97;185.90;;;;;;;;;;5010469;28;20047;-60
2023/08/29 05:23:43;;;;;;;209.97;195.03;;;;;;;;;;5000677;28;20034;-63
2023/08/29 05:26:08;;;;;;;287.60;265.57;;;;;;;;;;5026428;28;20048;-61
2023/08/29 05:28:33;;;;;;;349.80;322.13;;;;;;;;;;5010619;28;20088;-61
2023/08/29 05:30:58;;;;;;;223.25;205.75;;;;;;;;;;5010384;28;20405;-60
2023/08/29 05:33:23;;;;;;;456.00;417.97;;;;;;;;;;5002611;28;20101;-60
2023/08/29 05:35:49;;;;;;;313.40;287.73;;;;;;;;;;5011102;28;20033;-64
2023/08/29 05:38:14;;;;;;;252.53;233.50;;;;;;;;;;5005156;28;20437;-61
2023/08/29 05:40:39;;;;;;;265.55;245.88;;;;;;;;;;4998378;28;20034;-62
2023/08/29 05:43:04;;;;;;;248.63;230.50;;;;;;;;;;5007823;28;20068;-61
2023/08/29 05:45:29;;;;;;;301.17;278.60;;;;;;;;;;5004437;28;20173;-63
2023/08/29 05:47:55;;;;;;;138.77;128.68;;;;;;;;;;5005223;28;20032;-61
2023/08/29 05:50:20;;;;;;;198.37;183.47;;;;;;;;;;5007019;28;20087;-62
2023/08/29 05:52:45;;;;;;;228.10;210.60;;;;;;;;;;5006936;28;20064;-63
2023/08/29 05:55:10;;;;;;;514.23;470.43;;;;;;;;;;5004179;28;20064;-66
2023/08/29 05:57:35;;;;;;;218.10;201.80;;;;;;;;;;5003676;28;20044;-64
2023/08/29 06:00:00;;;;;;;248.05;229.55;;;;;;;;;;5004320;28;20099;-63
2023/08/29 06:02:26;;;;;;;346.23;318.93;;;;;;;;;;5006123;28;20021;-61
2023/08/29 06:04:51;;;;;;;253.77;234.55;;;;;;;;;;5006215;28;20370;-63
2023/08/29 06:07:16;;;;;;;291.52;269.65;;;;;;;;;;5007076;28;20026;-60
2023/08/29 06:09:42;;;;;;;297.37;274.17;;;;;;;;;;5009651;28;20022;-63
2023/08/29 06:12:07;;;;;;;244.93;227.02;;;;;;;;;;5008553;28;20049;-61
2023/08/29 06:14:32;;;;;;;345.93;319.33;;;;;;;;;;5009617;28;20022;-63
2023/08/29 06:16:57;;;;;;;274.23;252.80;;;;;;;;;;5008874;28;20033;-64
2023/08/29 06:19:23;;;;;;;145.37;135.70;;;;;;;;;;5010874;28;20033;-62
2023/08/29 06:21:48;;;;;;;180.17;166.40;;;;;;;;;;5010918;28;20115;-63
2023/08/29 06:24:14;;;;;;;230.63;214.43;;;;;;;;;;5011596;28;20048;-61
2023/08/29 06:26:39;;;;;;;189.32;176.23;;;;;;;;;;5010552;28;20083;-62
2023/08/29 06:29:05;;;;;;;355.07;325.87;;;;;;;;;;5004583;28;20121;-63
2023/08/29 06:31:30;;;;;;;389.17;356.48;;;;;;;;;;5008699;28;20026;-63
2023/08/29 06:33:55;;;;;;;297.83;275.70;;;;;;;;;;5009216;28;20018;-61
2023/08/29 06:36:20;;;;;;;335.60;309.97;;;;;;;;;;5010041;28;20030;-61
2023/08/29 06:38:45;;;;;;;334.10;307.25;;;;;;;;;;5009837;28;20168;-62
2023/08/29 06:41:11;;;;;;;345.87;318.50;;;;;;;;;;5009539;28;20022;-61
2023/08/29 06:43:36;;;;;;;317.47;292.13;;;;;;;;;;5008171;28;20021;-62
2023/08/29 06:46:01;;;;;;;267.00;249.27;;;;;;;;;;4998626;28;20173;-62
2023/08/29 06:48:26;;;;;;;313.42;288.50;;;;;;;;;;4999900;28;20037;-62
2023/08/29 06:50:51;;;;;;;328.33;302.17;;;;;;;;;;5012083;28;20017;-60
2023/08/29 06:53:17;;;;;;;438.27;402.27;;;;;;;;;;5009289;28;20022;-61
2023/08/29 06:55:42;;;;;;;223.60;207.70;;;;;;;;;;5013660;28;20478;-60
2023/08/29 06:58:07;;;;;;;190.20;178.17;;;;;;;;;;5011826;28;20018;-60
2023/08/29 07:00:33;;;;;;;238.18;221.65;;;;;;;;;;5011997;28;20037;-60
2023/08/29 07:02:58;;;;;;;444.13;407.13;;;;;;;;;;5010744;28;20109;-60
2023/08/29 07:05:24;;;;;;;502.30;452.13;;;;;;;;;;5005002;28;20540;-60
2023/08/29 07:07:49;;;;;;;348.73;321.10;;;;;;;;;;5009542;28;20032;-64
2023/08/29 07:10:14;;;;;;;397.40;365.17;;;;;;;;;;5013784;28;20412;-61
2023/08/29 07:12:39;;;;;;;192.30;178.57;;;;;;;;;;5004427;28;20053;-60
2023/08/29 07:15:05;;;;;;;252.80;233.53;;;;;;;;;;4993508;28;20073;-61
2023/08/29 07:17:30;;;;;;;249.77;231.18;;;;;;;;;;4995549;28;20487;-60
2023/08/29 07:19:55;;;;;;;296.00;273.37;;;;;;;;;;5004960;28;20022;-60
2023/08/29 07:22:20;;;;;;;96.22;89.55;;;;;;;;;;5013245;28;20080;-60
2023/08/29 07:24:46;;;;;;;245.87;227.70;;;;;;;;;;5013579;28;20105;-60
2023/08/29 07:27:11;;;;;;;153.70;143.47;;;;;;;;;;5011492;28;20076;-61
2023/08/29 07:29:36;;;;;;;372.87;343.80;;;;;;;;;;5003785;28;20387;-60
2023/08/29 07:32:01;;;;;;;491.83;452.03;;;;;;;;;;5010364;28;20042;-61
2023/08/29 07:34:26;;;;;;;367.33;336.67;;;;;;;;;;5006200;28;20480;-60
2023/08/29 07:36:51;;;;;;;191.43;178.80;;;;;;;;;;5011357;28;20100;-60
2023/08/29 07:39:18;;;;;;;289.80;267.33;;;;;;;;;;5012301;28;20030;-60
2023/08/29 07:41:44;;;;;;;280.40;259.05;;;;;;;;;;5005423;28;20022;-61
2023/08/29 07:44:09;;;;;;;223.00;206.43;;;;;;;;;;5009742;28;20025;-60
2023/08/29 07:46:34;;;;;;;315.13;290.77;;;;;;;;;;4993003;28;20018;-61
2023/08/29 07:49:00;;;;;;;316.70;292.53;;;;;;;;;;5004849;28;20101;-60
2023/08/29 07:51:25;;;;;;;288.05;266.67;;;;;;;;;;5013125;28;20493;-60
2023/08/29 07:53:50;;;;;;;135.23;126.67;;;;;;;;;;5011825;28;20034;-62
2023/08/29 07:56:15;;;;;;;214.55;199.52;;;;;;;;;;5006390;28;20018;-61
2023/08/29 07:58:40;;;;;;;246.40;228.50;;;;;;;;;;5009525;28;20036;-60
2023/08/29 08:01:05;;;;;;;308.00;282.93;;;;;;;;;;5012275;28;20080;-61
2023/08/29 08:03:31;;;;;;;260.80;241.27;;;;;;;;;;5007321;28;20014;-61
2023/08/29 08:05:56;;;;;;;301.33;278.27;;;;;;;;;;5008353;28;20027;-61
2023/08/29 08:08:21;;;;;;;316.27;292.27;;;;;;;;;;5007296;28;20030;-60
2023/08/29 08:10:46;;;;;;;147.43;137.07;;;;;;;;;;5004012;28;20018;-61
2023/08/29 08:13:12;;;;;;;168.60;157.18;;;;;;;;;;5008005;28;20054;-61
2023/08/29 08:15:37;;;;;;;227.88;211.88;;;;;;;;;;5009210;28;20029;-60
2023/08/29 08:18:02;;;;;;;366.73;337.03;;;;;;;;;;5008203;28;20389;-61
2023/08/29 08:20:28;;;;;;;195.43;181.80;;;;;;;;;;5002041;28;20026;-60
2023/08/29 08:22:53;;;;;;;380.63;350.00;;;;;;;;;;5011449;28;20377;-60
2023/08/29 08:25:18;;;;;;;266.37;246.80;;;;;;;;;;5004430;28;20425;-60
2023/08/29 08:27:43;;;;;;;251.57;232.37;;;;;;;;;;5009595;28;20025;-61
2023/08/29 08:30:09;;;;;;;416.10;380.47;;;;;;;;;;5011931;28;20105;-60
2023/08/29 08:32:35;;;;;;;275.90;255.48;;;;;;;;;;5011497;28;20080;-61
2023/08/29 08:35:00;;;;;;;253.32;233.73;;;;;;;;;;5010967;28;20033;-60
2023/08/29 08:37:25;;;;;;;281.43;259.73;;;;;;;;;;5009610;28;20030;-60
2023/08/29 08:39:50;;;;;;;128.33;120.37;;;;;;;;;;4995527;28;20018;-61
2023/08/29 08:42:15;;;;;;;207.33;192.20;;;;;;;;;;5000301;28;20142;-60
2023/08/29 08:44:41;;;;;;;299.30;275.13;;;;;;;;;;5010577;28;20021;-61
2023/08/29 08:47:07;;;;;;;189.13;175.90;;;;;;;;;;5011480;28;20041;-60
2023/08/29 08:49:32;;;;;;;197.73;183.20;;;;;;;;;;5011925;28;20076;-60
2023/08/29 08:51:58;;;;;;;309.25;285.80;;;;;;;;;;5008688;28;20022;-60
2023/08/29 08:54:23;;;;;;;225.82;209.07;;;;;;;;;;4994785;28;20022;-59
2023/08/29 08:56:48;;;;;;;319.90;291.92;;;;;;;;;;5009328;28;20030;-61
2023/08/29 08:59:14;;;;;;;328.50;302.77;;;;;;;;;;5011347;28;20056;-60
2023/08/29 09:01:40;;;;;;;263.52;243.68;;;;;;;;;;5011528;28;20083;-60
2023/08/29 09:04:05;;;;;;;281.47;259.00;;;;;;;;;;5011910;28;20416;-60
2023/08/29 09:06:30;;;;;;;398.90;364.93;;;;;;;;;;5008669;28;20022;-61
2023/08/29 09:08:56;;;;;;;332.10;304.98;;;;;;;;;;4995619;28;20022;-60
2023/08/29 09:11:21;;;;;;;270.45;248.25;;;;;;;;;;5011815;28;20036;-60
2023/08/29 09:13:49;;;;;;;314.37;290.07;;;;;;;;;;5011528;28;20030;-59
2023/08/29 09:16:16;;;;;;;299.77;275.65;;;;;;;;;;5011127;28;20030;-59
2023/08/29 09:18:44;;;;;;;322.92;296.83;;;;;;;;;;5011323;28;20502;-60
2023/08/29 09:21:16;;;;;;;340.45;313.08;;;;;;;;;;5010333;28;20022;-60
2023/08/29 09:23:42;;;;;;;241.18;222.85;;;;;;;;;;4996744;28;20105;-60
2023/08/29 09:26:09;;;;;;;308.27;283.98;;;;;;;;;;4996127;28;20096;-60
2023/08/29 09:28:35;;;;;;;337.52;311.30;;;;;;;;;;5010878;28;20095;-60
2023/08/29 09:31:07;;;;;;;282.47;261.77;;;;;;;;;;5011410;28;20097;-59
2023/08/29 09:33:32;;;;;;;146.45;135.93;;;;;;;;;;5009749;28;20496;-60
2023/08/29 09:35:59;;;;;;;104.30;97.20;;;;;;;;;;5007247;28;20018;-60
2023/08/29 09:38:27;;;;;;;214.15;197.88;;;;;;;;;;5002424;28;20022;-59
2023/08/29 09:40:54;;;;;;;335.50;309.55;;;;;;;;;;4992328;28;20022;-60
2023/08/29 09:43:19;;;;;;;528.85;484.95;;;;;;;;;;5009688;28;20014;-59
2023/08/29 09:45:49;;;;;;;436.00;399.90;;;;;;;;;;5011380;28;20474;-59
2023/08/29 09:48:14;;;;;;;341.13;314.23;;;;;;;;;;5009866;28;20129;-59
2023/08/29 09:50:40;;;;;;;294.17;270.93;;;;;;;;;;5008243;28;20536;-60
2023/08/29 09:53:07;;;;;;;260.77;240.85;;;;;;;;;;4995338;28;20018;-59
2023/08/29 09:55:38;;;;;;;189.00;176.40;;;;;;;;;;5009884;28;20109;-60
2023/08/29 09:58:04;;;;;;;380.90;346.95;;;;;;;;;;5002537;28;20045;-60
2023/08/29 10:00:30;;;;;;;373.05;343.80;;;;;;;;;;5006559;28;20030;-61
2023/08/29 10:02:56;;;;;;;241.70;222.52;;;;;;;;;;5010491;28;20393;-60
2023/08/29 10:05:23;;;;;;;207.10;191.50;;;;;;;;;;5002528;28;20105;-59
2023/08/29 10:07:51;;;;;;;185.93;173.70;;;;;;;;;;5007477;28;20044;-59
2023/08/29 10:10:16;;;;;;;193.68;180.98;;;;;;;;;;5004847;28;20089;-60
2023/08/29 10:12:43;;;;;;;210.63;194.43;;;;;;;;;;5005614;28;20540;-59
2023/08/29 10:15:08;;;;;;;305.45;281.17;;;;;;;;;;5008569;28;20469;-60
2023/08/29 10:17:34;;;;;;;232.25;214.77;;;;;;;;;;5009372;28;20029;-59
2023/08/29 10:20:00;;;;;;;212.85;197.73;;;;;;;;;;5002372;28;20045;-59
2023/08/29 10:22:30;;;;;;;412.88;376.63;;;;;;;;;;5009298;28;20057;-59
2023/08/29 10:24:55;;;;;;;230.23;212.10;;;;;;;;;;5002253;28;20037;-59
2023/08/29 10:27:20;;;;;;;219.15;203.30;;;;;;;;;;5010114;28;20017;-60
2023/08/29 10:29:45;;;;;;;333.97;308.13;;;;;;;;;;5006810;28;20069;-59
2023/08/29 10:32:11;;;;;;;323.97;297.50;;;;;;;;;;4998774;28;20018;-59
2023/08/29 10:34:36;;;;;;;124.53;116.43;;;;;;;;;;5002116;28;20450;-59
2023/08/29 10:37:03;;;;;;;194.23;180.33;;;;;;;;;;5003101;28;20034;-59
2023/08/29 10:39:29;;;;;;;352.38;324.63;;;;;;;;;;5001715;28;20614;-60
2023/08/29 10:41:55;;;;;;;186.45;173.15;;;;;;;;;;5009979;28;20113;-59
2023/08/29 10:44:35;;;;;;;107.88;100.20;;;;;;;;;;5002574;28;20022;-59
2023/08/29 10:47:20;;;;;;;264.33;243.32;;;;;;;;;;5006780;28;20049;-60
2023/08/29 10:49:46;;;;;;;122.53;113.93;;;;;;;;;;5003158;28;20457;-59
2023/08/29 10:52:13;;;;;;;266.02;245.65;;;;;;;;;;5009942;28;20014;-59
2023/08/29 10:54:39;;;;;;;173.38;161.93;;;;;;;;;;5011145;28;20073;-59
2023/08/29 10:57:25;;;;;;;304.30;280.70;;;;;;;;;;5012297;28;20029;-59
2023/08/29 10:59:52;;;;;;;360.38;331.67;;;;;;;;;;5010505;28;20030;-58
2023/08/29 11:02:23;;;;;;;327.67;301.08;;;;;;;;;;5012058;28;20025;-60
2023/08/29 11:04:51;;;;;;;264.65;243.40;;;;;;;;;;5013133;28;20420;-59
2023/08/29 11:07:25;;;;;;;390.95;357.80;;;;;;;;;;5008025;28;20021;-59
2023/08/29 11:10:09;;;;;;;213.32;197.73;;;;;;;;;;5009067;28;20026;-59
2023/08/29 11:12:34;;;;;;;250.00;232.27;;;;;;;;;;5013162;28;20496;-59
2023/08/29 11:14:59;;;;;;;335.87;308.53;;;;;;;;;;5012292;28;20029;-60
2023/08/29 11:17:25;;;;;;;360.47;329.63;;;;;;;;;;5012629;28;20105;-59
2023/08/29 11:19:51;;;;;;;132.60;123.63;;;;;;;;;;5013357;28;20397;-59
2023/08/29 11:22:17;;;;;;;231.43;213.63;;;;;;;;;;5012075;28;20117;-59
2023/08/29 11:24:42;;;;;;;228.73;211.90;;;;;;;;;;5013321;28;20101;-59
2023/08/29 11:27:07;;;;;;;153.97;142.57;;;;;;;;;;5011587;28;20068;-59
2023/08/29 11:29:36;;;;;;;296.67;274.13;;;;;;;;;;5011848;28;20029;-59
2023/08/29 11:32:02;;;;;;;196.68;182.43;;;;;;;;;;5004929;28;20025;-60
2023/08/29 11:34:27;;;;;;;200.27;185.50;;;;;;;;;;5012815;28;20014;-60
2023/08/29 11:36:53;;;;;;;283.90;262.07;;;;;;;;;;5011976;28;20033;-59
2023/08/29 11:39:21;;;;;;;240.82;223.05;;;;;;;;;;5007548;28;20101;-59
2023/08/29 11:41:46;;;;;;;231.40;213.95;;;;;;;;;;5012583;28;20026;-59
2023/08/29 11:44:12;;;;;;;235.85;219.80;;;;;;;;;;5013002;28;20517;-59
2023/08/29 11:46:37;;;;;;;223.03;207.03;;;;;;;;;;5006456;28;20493;-59
2023/08/29 11:49:15;;;;;;;365.30;336.58;;;;;;;;;;5012520;28;20056;-60
2023/08/29 11:51:41;;;;;;;212.13;196.75;;;;;;;;;;5012009;28;20052;-59
2023/08/29 11:54:25;;;;;;;288.70;266.57;;;;;;;;;;5012531;28;20481;-60
2023/08/29 11:56:50;;;;;;;394.60;363.33;;;;;;;;;;5011346;28;20444;-60
2023/08/29 11:59:15;;;;;;;298.97;275.67;;;;;;;;;;5011549;28;20022;-59
2023/08/29 12:01:41;;;;;;;243.23;225.60;;;;;;;;;;5011980;28;20053;-59
2023/08/29 12:04:06;;;;;;;141.27;130.95;;;;;;;;;;5012495;28;20045;-59
2023/08/29 12:06:32;;;;;;;161.23;149.50;;;;;;;;;;5010773;28;20100;-60
2023/08/29 12:08:57;;;;;;;279.60;258.83;;;;;;;;;;5012194;28;20018;-59
2023/08/29 12:11:23;;;;;;;202.67;189.07;;;;;;;;;;5012190;28;20113;-60
2023/08/29 12:13:59;;;;;;;184.57;171.75;;;;;;;;;;5013624;28;20413;-60
2023/08/29 12:16:24;;;;;;;143.00;133.65;;;;;;;;;;5011716;28;20616;-60
2023/08/29 12:18:50;;;;;;;193.37;178.17;;;;;;;;;;5009803;28;20113;-60
2023/08/29 12:21:16;;;;;;;400.92;362.80;;;;;;;;;;5012156;28;20037;-59
2023/08/29 12:23:42;;;;;;;358.02;325.98;;;;;;;;;;5011995;28;20044;-59
2023/08/29 12:26:08;;;;;;;198.10;183.98;;;;;;;;;;5012407;28;20025;-59
2023/08/29 12:28:33;;;;;;;235.90;218.70;;;;;;;;;;5011097;28;20029;-60
2023/08/29 12:30:58;;;;;;;278.17;256.38;;;;;;;;;;5011761;28;20437;-59
2023/08/29 12:33:23;;;;;;;162.07;150.60;;;;;;;;;;5011781;28;20025;-60
2023/08/29 12:35:49;;;;;;;397.40;365.40;;;;;;;;;;5011667;28;20033;-60
2023/08/29 12:38:14;;;;;;;173.13;160.20;;;;;;;;;;5006117;28;20025;-58
2023/08/29 12:40:39;;;;;;;261.27;241.23;;;;;;;;;;5009404;28;20564;-59
2023/08/29 12:43:05;;;;;;;289.60;267.33;;;;;;;;;;5008556;28;20374;-60
2023/08/29 12:45:31;;;;;;;297.30;273.25;;;;;;;;;;5005897;28;20049;-60
2023/08/29 12:47:56;;;;;;;351.83;322.87;;;;;;;;;;5016407;28;20456;-60
2023/08/29 12:50:21;;;;;;;252.82;232.40;;;;;;;;;;5011512;28;20021;-60
2023/08/29 12:52:46;;;;;;;443.55;406.20;;;;;;;;;;5011254;28;20338;-59
2023/08/29 12:55:12;;;;;;;307.53;284.47;;;;;;;;;;5011219;28;20022;-60
2023/08/29 12:57:37;;;;;;;322.48;296.17;;;;;;;;;;5009612;28;20485;-60
2023/08/29 13:00:03;;;;;;;337.93;311.30;;;;;;;;;;5011011;28;20022;-60
2023/08/29 13:02:28;;;;;;;199.23;184.85;;;;;;;;;;5011058;28;20036;-59
2023/08/29 13:04:53;;;;;;;198.07;182.70;;;;;;;;;;5010206;28;20014;-60
2023/08/29 13:07:19;;;;;;;332.08;305.92;;;;;;;;;;5009564;28;20033;-59
2023/08/29 13:09:48;;;;;;;223.33;206.33;;;;;;;;;;5011178;28;20601;-61
2023/08/29 13:12:13;;;;;;;276.55;255.57;;;;;;;;;;5010922;28;20022;-61
2023/08/29 13:14:38;;;;;;;307.65;283.92;;;;;;;;;;5010500;28;20033;-59
2023/08/29 13:17:04;;;;;;;405.10;369.07;;;;;;;;;;5005068;28;20026;-61
2023/08/29 13:19:29;;;;;;;218.73;201.33;;;;;;;;;;5006068;28;20053;-60
2023/08/29 13:21:54;;;;;;;205.68;190.68;;;;;;;;;;5008096;28;20544;-60
2023/08/29 13:24:20;;;;;;;242.15;224.45;;;;;;;;;;5000770;28;20022;-60
2023/08/29 13:26:45;;;;;;;154.20;143.53;;;;;;;;;;5006282;28;20085;-60
2023/08/29 13:29:10;;;;;;;288.37;266.07;;;;;;;;;;5007322;28;20616;-60
2023/08/29 13:31:35;;;;;;;428.55;392.35;;;;;;;;;;5002018;28;20507;-60
2023/08/29 13:34:00;;;;;;;423.90;389.10;;;;;;;;;;5005119;28;20575;-60
2023/08/29 13:36:26;;;;;;;404.13;369.03;;;;;;;;;;4997142;28;20061;-60
2023/08/29 13:38:51;;;;;;;230.38;213.48;;;;;;;;;;4998893;28;20034;-59
2023/08/29 13:41:16;;;;;;;370.10;342.17;;;;;;;;;;5001301;28;20042;-60
2023/08/29 13:43:41;;;;;;;307.77;284.00;;;;;;;;;;5004098;28;20026;-59
2023/08/29 13:46:07;;;;;;;171.57;159.57;;;;;;;;;;5005369;28;20033;-59